sensor_id;sensor_type;location;lat;lon;timestamp;temperature;humidity
48860;DHT22;34679;51.436;-2.518;2022-12-10T00:01:15;-2.90;99.90
48860;DHT22;34679;51.436;-2.518;2022-12-10T00:03:41;-2.90;99.90
48860;DHT22;34679;51.436;-2.518;2022-12-10T00:06:10;-3.00;99.90
48860;DHT22;34679;51.436;-2.518;2022-12-10T00:08:36;-2.90;99.90
48860;DHT22;34679;51.436;-2.518;2022-12-10T00:11:03;-1.70;99.90
48860;DHT22;34679;51.436;-2.518;2022-12-10T00:13:29;-2.90;99.90
48860;DHT22;34679;51.436;-2.518;2022-12-10T00:15:55;-3.00;99.90
48860;DHT22;34679;51.436;-2.518;2022-12-10T00:18:21;-3.00;99.90
48860;DHT22;34679;51.436;-2.518;2022-12-10T00:20:46;-3.00;99.90
48860;DHT22;34679;51.436;-2.518;2022-12-10T00:23:12;-3.00;99.90
48860;DHT22;34679;51.436;-2.518;2022-12-10T00:25:38;-3.00;99.90
48860;DHT22;34679;51.436;-2.518;2022-12-10T00:28:04;-3.00;99.90
48860;DHT22;34679;51.436;-2.518;2022-12-10T00:30:29;-3.00;99.90
48860;DHT22;34679;51.436;-2.518;2022-12-10T00:32:55;-3.00;99.90
48860;DHT22;34679;51.436;-2.518;2022-12-10T00:35:21;-3.10;99.90
48860;DHT22;34679;51.436;-2.518;2022-12-10T00:37:47;-3.10;99.90
48860;DHT22;34679;51.436;-2.518;2022-12-10T00:40:12;-2.50;99.90
48860;DHT22;34679;51.436;-2.518;2022-12-10T00:42:38;-3.10;99.90
48860;DHT22;34679;51.436;-2.518;2022-12-10T00:45:04;-2.50;99.90
48860;DHT22;34679;51.436;-2.518;2022-12-10T00:47:30;-3.20;99.90
48860;DHT22;34679;51.436;-2.518;2022-12-10T00:49:56;-3.30;99.90
48860;DHT22;34679;51.436;-2.518;2022-12-10T00:52:21;-2.70;99.90
48860;DHT22;34679;51.436;-2.518;2022-12-10T00:54:47;-3.30;99.90
48860;DHT22;34679;51.436;-2.518;2022-12-10T00:57:13;-3.30;99.90
48860;DHT22;34679;51.436;-2.518;2022-12-10T00:59:38;-3.20;99.90
48860;DHT22;34679;51.436;-2.518;2022-12-10T01:02:04;-2.00;99.90
48860;DHT22;34679;51.436;-2.518;2022-12-10T01:04:30;-3.00;99.90
48860;DHT22;34679;51.436;-2.518;2022-12-10T01:06:55;-2.80;99.90
48860;DHT22;34679;51.436;-2.518;2022-12-10T01:09:24;-3.00;99.90
48860;DHT22;34679;51.436;-2.518;2022-12-10T01:11:51;-3.20;99.90
48860;DHT22;34679;51.436;-2.518;2022-12-10T01:14:21;-2.50;99.90
48860;DHT22;34679;51.436;-2.518;2022-12-10T01:16:48;-3.00;99.90
48860;DHT22;34679;51.436;-2.518;2022-12-10T01:19:14;-2.20;99.90
48860;DHT22;34679;51.436;-2.518;2022-12-10T01:21:40;-3.40;99.90
48860;DHT22;34679;51.436;-2.518;2022-12-10T01:24:06;-2.50;99.90
48860;DHT22;34679;51.436;-2.518;2022-12-10T01:26:34;-3.40;99.90
48860;DHT22;34679;51.436;-2.518;2022-12-10T01:29:00;-3.30;99.90
48860;DHT22;34679;51.436;-2.518;2022-12-10T01:31:32;-3.10;99.90
48860;DHT22;34679;51.436;-2.518;2022-12-10T01:33:58;-3.50;99.90
48860;DHT22;34679;51.436;-2.518;2022-12-10T01:36:29;-3.50;99.90
48860;DHT22;34679;51.436;-2.518;2022-12-10T01:38:54;-3.50;99.90
48860;DHT22;34679;51.436;-2.518;2022-12-10T01:41:21;-3.50;99.90
48860;DHT22;34679;51.436;-2.518;2022-12-10T01:46:39;-3.60;99.90
48860;DHT22;34679;51.436;-2.518;2022-12-10T01:49:09;-3.50;99.90
48860;DHT22;34679;51.436;-2.518;2022-12-10T01:51:37;-3.60;99.90
48860;DHT22;34679;51.436;-2.518;2022-12-10T01:54:07;-2.80;99.90
48860;DHT22;34679;51.436;-2.518;2022-12-10T01:56:37;-3.60;99.90
48860;DHT22;34679;51.436;-2.518;2022-12-10T01:59:03;-3.30;99.90
48860;DHT22;34679;51.436;-2.518;2022-12-10T02:01:57;-3.60;99.90
48860;DHT22;34679;51.436;-2.518;2022-12-10T02:04:38;-3.60;99.90
48860;DHT22;34679;51.436;-2.518;2022-12-10T02:07:13;-2.90;99.90
48860;DHT22;34679;51.436;-2.518;2022-12-10T02:12:42;-3.70;99.90
48860;DHT22;34679;51.436;-2.518;2022-12-10T02:15:17;-3.70;99.90
48860;DHT22;34679;51.436;-2.518;2022-12-10T02:20:22;-3.80;99.90
48860;DHT22;34679;51.436;-2.518;2022-12-10T02:22:55;-3.30;99.90
48860;DHT22;34679;51.436;-2.518;2022-12-10T02:25:32;-3.70;99.90
48860;DHT22;34679;51.436;-2.518;2022-12-10T02:30:50;-3.70;99.90
48860;DHT22;34679;51.436;-2.518;2022-12-10T02:33:17;-2.30;99.90
48860;DHT22;34679;51.436;-2.518;2022-12-10T02:35:45;-3.70;99.90
48860;DHT22;34679;51.436;-2.518;2022-12-10T02:38:30;-3.60;99.90
48860;DHT22;34679;51.436;-2.518;2022-12-10T02:41:02;-3.50;99.90
48860;DHT22;34679;51.436;-2.518;2022-12-10T02:43:30;-2.50;99.90
48860;DHT22;34679;51.436;-2.518;2022-12-10T02:46:00;-3.30;99.90
48860;DHT22;34679;51.436;-2.518;2022-12-10T02:48:28;-3.30;99.90
48860;DHT22;34679;51.436;-2.518;2022-12-10T02:50:54;-3.20;99.90
48860;DHT22;34679;51.436;-2.518;2022-12-10T02:53:20;-2.60;99.90
48860;DHT22;34679;51.436;-2.518;2022-12-10T02:56:13;-3.40;99.90
48860;DHT22;34679;51.436;-2.518;2022-12-10T02:59:00;-3.50;99.90
48860;DHT22;34679;51.436;-2.518;2022-12-10T03:01:56;-3.50;99.90
48860;DHT22;34679;51.436;-2.518;2022-12-10T03:04:33;-3.50;99.90
48860;DHT22;34679;51.436;-2.518;2022-12-10T03:07:08;-3.60;99.90
48860;DHT22;34679;51.436;-2.518;2022-12-10T03:09:38;-3.60;99.90
48860;DHT22;34679;51.436;-2.518;2022-12-10T03:12:35;-2.30;99.90
48860;DHT22;34679;51.436;-2.518;2022-12-10T03:15:06;-3.80;99.90
48860;DHT22;34679;51.436;-2.518;2022-12-10T03:17:35;-3.80;99.90
48860;DHT22;34679;51.436;-2.518;2022-12-10T03:20:02;-3.40;99.90
48860;DHT22;34679;51.436;-2.518;2022-12-10T03:22:29;-3.80;99.90
48860;DHT22;34679;51.436;-2.518;2022-12-10T03:24:58;-3.90;99.90
48860;DHT22;34679;51.436;-2.518;2022-12-10T03:27:24;-2.70;99.90
48860;DHT22;34679;51.436;-2.518;2022-12-10T03:29:53;-3.40;99.90
48860;DHT22;34679;51.436;-2.518;2022-12-10T03:32:22;-3.40;99.90
48860;DHT22;34679;51.436;-2.518;2022-12-10T03:34:49;-4.00;99.90
48860;DHT22;34679;51.436;-2.518;2022-12-10T03:37:17;-2.50;99.90
48860;DHT22;34679;51.436;-2.518;2022-12-10T03:39:44;-4.00;99.90
48860;DHT22;34679;51.436;-2.518;2022-12-10T03:42:09;-3.10;99.90
48860;DHT22;34679;51.436;-2.518;2022-12-10T03:44:37;-3.90;99.90
48860;DHT22;34679;51.436;-2.518;2022-12-10T03:47:05;-2.20;99.90
48860;DHT22;34679;51.436;-2.518;2022-12-10T03:49:31;-3.80;99.90
48860;DHT22;34679;51.436;-2.518;2022-12-10T03:51:57;-2.80;99.90
48860;DHT22;34679;51.436;-2.518;2022-12-10T03:54:23;-3.30;99.90
48860;DHT22;34679;51.436;-2.518;2022-12-10T03:56:49;-2.40;99.90
48860;DHT22;34679;51.436;-2.518;2022-12-10T03:59:15;-3.10;99.90
48860;DHT22;34679;51.436;-2.518;2022-12-10T04:01:41;-3.00;99.90
48860;DHT22;34679;51.436;-2.518;2022-12-10T04:04:08;-2.60;99.90
48860;DHT22;34679;51.436;-2.518;2022-12-10T04:06:34;-3.70;99.90
48860;DHT22;34679;51.436;-2.518;2022-12-10T04:09:00;-3.80;99.90
48860;DHT22;34679;51.436;-2.518;2022-12-10T04:11:26;-3.70;99.90
48860;DHT22;34679;51.436;-2.518;2022-12-10T04:13:52;-3.80;99.90
48860;DHT22;34679;51.436;-2.518;2022-12-10T04:16:37;-2.50;99.90
48860;DHT22;34679;51.436;-2.518;2022-12-10T04:19:09;-3.90;99.90
48860;DHT22;34679;51.436;-2.518;2022-12-10T04:21:36;-3.90;99.90
48860;DHT22;34679;51.436;-2.518;2022-12-10T04:24:23;-4.00;99.90
48860;DHT22;34679;51.436;-2.518;2022-12-10T04:27:28;-4.10;99.90
48860;DHT22;34679;51.436;-2.518;2022-12-10T04:29:55;-4.00;99.90
48860;DHT22;34679;51.436;-2.518;2022-12-10T04:32:22;-3.90;99.90
48860;DHT22;34679;51.436;-2.518;2022-12-10T04:34:48;-2.80;99.90
48860;DHT22;34679;51.436;-2.518;2022-12-10T04:37:15;-3.70;99.90
48860;DHT22;34679;51.436;-2.518;2022-12-10T04:39:41;-3.40;99.90
48860;DHT22;34679;51.436;-2.518;2022-12-10T04:42:07;-3.00;99.90
48860;DHT22;34679;51.436;-2.518;2022-12-10T04:44:34;-3.10;99.90
48860;DHT22;34679;51.436;-2.518;2022-12-10T04:47:00;-4.20;99.90
48860;DHT22;34679;51.436;-2.518;2022-12-10T04:49:26;-4.20;99.90
48860;DHT22;34679;51.436;-2.518;2022-12-10T04:51:52;-3.90;99.90
48860;DHT22;34679;51.436;-2.518;2022-12-10T04:54:19;-3.10;99.90
48860;DHT22;34679;51.436;-2.518;2022-12-10T04:56:45;-3.40;99.90
48860;DHT22;34679;51.436;-2.518;2022-12-10T04:59:11;-3.40;99.90
48860;DHT22;34679;51.436;-2.518;2022-12-10T05:01:37;-4.30;99.90
48860;DHT22;34679;51.436;-2.518;2022-12-10T05:04:05;-3.60;99.90
48860;DHT22;34679;51.436;-2.518;2022-12-10T05:06:32;-4.20;99.90
48860;DHT22;34679;51.436;-2.518;2022-12-10T05:08:58;-4.20;99.90
48860;DHT22;34679;51.436;-2.518;2022-12-10T05:11:28;-3.70;99.90
48860;DHT22;34679;51.436;-2.518;2022-12-10T05:13:55;-4.30;99.90
48860;DHT22;34679;51.436;-2.518;2022-12-10T05:16:22;-4.20;99.90
48860;DHT22;34679;51.436;-2.518;2022-12-10T05:18:49;-3.10;99.90
48860;DHT22;34679;51.436;-2.518;2022-12-10T05:21:16;-4.30;99.90
48860;DHT22;34679;51.436;-2.518;2022-12-10T05:23:44;-4.30;99.90
48860;DHT22;34679;51.436;-2.518;2022-12-10T05:26:16;-3.80;99.90
48860;DHT22;34679;51.436;-2.518;2022-12-10T05:28:47;-4.20;99.90
48860;DHT22;34679;51.436;-2.518;2022-12-10T05:33:44;-4.00;99.90
48860;DHT22;34679;51.436;-2.518;2022-12-10T05:36:12;-2.80;99.90
48860;DHT22;34679;51.436;-2.518;2022-12-10T05:38:38;-3.30;99.90
48860;DHT22;34679;51.436;-2.518;2022-12-10T05:41:05;-3.90;99.90
48860;DHT22;34679;51.436;-2.518;2022-12-10T05:43:32;-2.70;99.90
48860;DHT22;34679;51.436;-2.518;2022-12-10T05:46:02;-4.00;99.90
48860;DHT22;34679;51.436;-2.518;2022-12-10T05:48:28;-3.00;99.90
48860;DHT22;34679;51.436;-2.518;2022-12-10T05:50:54;-4.00;99.90
48860;DHT22;34679;51.436;-2.518;2022-12-10T05:53:20;-2.70;99.90
48860;DHT22;34679;51.436;-2.518;2022-12-10T05:55:45;-4.20;99.90
48860;DHT22;34679;51.436;-2.518;2022-12-10T05:58:11;-4.10;99.90
48860;DHT22;34679;51.436;-2.518;2022-12-10T06:00:39;-4.20;99.90
48860;DHT22;34679;51.436;-2.518;2022-12-10T06:03:06;-4.20;99.90
48860;DHT22;34679;51.436;-2.518;2022-12-10T06:05:39;-3.00;99.90
48860;DHT22;34679;51.436;-2.518;2022-12-10T06:08:06;-4.20;99.90
48860;DHT22;34679;51.436;-2.518;2022-12-10T06:10:34;-3.30;99.90
48860;DHT22;34679;51.436;-2.518;2022-12-10T06:13:01;-3.10;99.90
48860;DHT22;34679;51.436;-2.518;2022-12-10T06:15:27;-3.00;99.90
48860;DHT22;34679;51.436;-2.518;2022-12-10T06:17:56;-4.30;99.90
48860;DHT22;34679;51.436;-2.518;2022-12-10T06:20:23;-3.20;99.90
48860;DHT22;34679;51.436;-2.518;2022-12-10T06:22:49;-4.20;99.90
48860;DHT22;34679;51.436;-2.518;2022-12-10T06:25:15;-4.20;99.90
48860;DHT22;34679;51.436;-2.518;2022-12-10T06:27:41;-4.20;99.90
48860;DHT22;34679;51.436;-2.518;2022-12-10T06:30:07;-3.60;99.90
48860;DHT22;34679;51.436;-2.518;2022-12-10T06:32:33;-4.10;99.90
48860;DHT22;34679;51.436;-2.518;2022-12-10T06:34:59;-3.90;99.90
48860;DHT22;34679;51.436;-2.518;2022-12-10T06:37:24;-3.40;99.90
48860;DHT22;34679;51.436;-2.518;2022-12-10T06:39:51;-3.80;99.90
48860;DHT22;34679;51.436;-2.518;2022-12-10T06:42:18;-3.80;99.90
48860;DHT22;34679;51.436;-2.518;2022-12-10T06:44:44;-3.50;99.90
48860;DHT22;34679;51.436;-2.518;2022-12-10T06:47:09;-3.80;99.90
48860;DHT22;34679;51.436;-2.518;2022-12-10T06:49:35;-3.90;99.90
48860;DHT22;34679;51.436;-2.518;2022-12-10T06:52:01;-3.90;99.90
48860;DHT22;34679;51.436;-2.518;2022-12-10T06:54:27;-2.90;99.90
48860;DHT22;34679;51.436;-2.518;2022-12-10T06:56:53;-3.90;99.90
48860;DHT22;34679;51.436;-2.518;2022-12-10T06:59:19;-4.00;99.90
48860;DHT22;34679;51.436;-2.518;2022-12-10T07:01:46;-3.00;99.90
48860;DHT22;34679;51.436;-2.518;2022-12-10T07:04:12;-2.80;99.90
48860;DHT22;34679;51.436;-2.518;2022-12-10T07:06:38;-4.00;99.90
48860;DHT22;34679;51.436;-2.518;2022-12-10T07:09:04;-4.00;99.90
48860;DHT22;34679;51.436;-2.518;2022-12-10T07:11:29;-2.30;99.90
48860;DHT22;34679;51.436;-2.518;2022-12-10T07:13:59;-2.50;99.90
48860;DHT22;34679;51.436;-2.518;2022-12-10T07:16:27;-3.60;99.90
48860;DHT22;34679;51.436;-2.518;2022-12-10T07:18:55;-3.80;99.90
48860;DHT22;34679;51.436;-2.518;2022-12-10T07:21:29;-3.90;99.90
48860;DHT22;34679;51.436;-2.518;2022-12-10T07:23:57;-4.00;99.90
48860;DHT22;34679;51.436;-2.518;2022-12-10T07:26:31;-4.00;99.90
48860;DHT22;34679;51.436;-2.518;2022-12-10T07:29:01;-4.10;99.90
48860;DHT22;34679;51.436;-2.518;2022-12-10T07:31:27;-3.50;99.90
48860;DHT22;34679;51.436;-2.518;2022-12-10T07:33:54;-3.00;99.90
48860;DHT22;34679;51.436;-2.518;2022-12-10T07:36:22;-2.80;99.90
48860;DHT22;34679;51.436;-2.518;2022-12-10T07:38:49;-3.40;99.90
48860;DHT22;34679;51.436;-2.518;2022-12-10T07:41:16;-3.00;99.90
48860;DHT22;34679;51.436;-2.518;2022-12-10T07:43:43;-4.10;99.90
48860;DHT22;34679;51.436;-2.518;2022-12-10T07:46:13;-3.40;99.90
48860;DHT22;34679;51.436;-2.518;2022-12-10T07:48:40;-3.90;99.90
48860;DHT22;34679;51.436;-2.518;2022-12-10T07:51:06;-3.70;99.90
48860;DHT22;34679;51.436;-2.518;2022-12-10T07:53:32;-3.70;99.90
48860;DHT22;34679;51.436;-2.518;2022-12-10T07:55:58;-3.70;99.90
48860;DHT22;34679;51.436;-2.518;2022-12-10T07:58:24;-2.60;99.90
48860;DHT22;34679;51.436;-2.518;2022-12-10T08:00:50;-3.70;99.90
48860;DHT22;34679;51.436;-2.518;2022-12-10T08:03:16;-4.00;99.90
48860;DHT22;34679;51.436;-2.518;2022-12-10T08:05:41;-4.00;99.90
48860;DHT22;34679;51.436;-2.518;2022-12-10T08:08:07;-3.20;99.90
48860;DHT22;34679;51.436;-2.518;2022-12-10T08:10:34;-3.90;99.90
48860;DHT22;34679;51.436;-2.518;2022-12-10T08:13:00;-3.90;99.90
48860;DHT22;34679;51.436;-2.518;2022-12-10T08:15:26;-2.70;99.90
48860;DHT22;34679;51.436;-2.518;2022-12-10T08:17:53;-2.50;99.90
48860;DHT22;34679;51.436;-2.518;2022-12-10T08:20:19;-2.50;99.90
48860;DHT22;34679;51.436;-2.518;2022-12-10T08:22:45;-3.70;99.90
48860;DHT22;34679;51.436;-2.518;2022-12-10T08:25:11;-3.70;99.90
48860;DHT22;34679;51.436;-2.518;2022-12-10T08:27:37;-3.50;99.90
48860;DHT22;34679;51.436;-2.518;2022-12-10T08:30:03;-3.50;99.90
48860;DHT22;34679;51.436;-2.518;2022-12-10T08:32:29;-3.40;99.90
48860;DHT22;34679;51.436;-2.518;2022-12-10T08:34:55;-3.30;99.90
48860;DHT22;34679;51.436;-2.518;2022-12-10T08:37:21;-3.30;99.90
48860;DHT22;34679;51.436;-2.518;2022-12-10T08:39:46;-3.20;99.90
48860;DHT22;34679;51.436;-2.518;2022-12-10T08:42:12;-3.20;99.90
48860;DHT22;34679;51.436;-2.518;2022-12-10T08:44:38;-3.00;99.90
48860;DHT22;34679;51.436;-2.518;2022-12-10T08:47:03;-2.90;99.90
48860;DHT22;34679;51.436;-2.518;2022-12-10T08:49:30;-2.70;99.90
48860;DHT22;34679;51.436;-2.518;2022-12-10T08:51:56;-2.70;99.90
48860;DHT22;34679;51.436;-2.518;2022-12-10T08:54:22;-2.50;99.90
48860;DHT22;34679;51.436;-2.518;2022-12-10T08:56:47;-2.40;99.90
48860;DHT22;34679;51.436;-2.518;2022-12-10T08:59:13;-2.30;99.90
48860;DHT22;34679;51.436;-2.518;2022-12-10T09:01:39;-2.10;99.90
48860;DHT22;34679;51.436;-2.518;2022-12-10T09:04:05;-2.30;99.90
48860;DHT22;34679;51.436;-2.518;2022-12-10T09:06:30;-2.30;99.90
48860;DHT22;34679;51.436;-2.518;2022-12-10T09:08:56;-2.30;99.90
48860;DHT22;34679;51.436;-2.518;2022-12-10T09:11:28;-2.30;99.90
48860;DHT22;34679;51.436;-2.518;2022-12-10T09:13:55;-2.40;99.90
48860;DHT22;34679;51.436;-2.518;2022-12-10T09:16:21;-2.40;99.90
48860;DHT22;34679;51.436;-2.518;2022-12-10T09:18:46;-2.40;99.90
48860;DHT22;34679;51.436;-2.518;2022-12-10T09:21:15;-2.40;99.90
48860;DHT22;34679;51.436;-2.518;2022-12-10T09:23:41;-2.20;99.90
48860;DHT22;34679;51.436;-2.518;2022-12-10T09:26:09;-2.50;99.90
48860;DHT22;34679;51.436;-2.518;2022-12-10T09:28:35;-2.40;99.90
48860;DHT22;34679;51.436;-2.518;2022-12-10T09:31:02;-2.40;99.90
48860;DHT22;34679;51.436;-2.518;2022-12-10T09:33:29;-2.30;99.90
48860;DHT22;34679;51.436;-2.518;2022-12-10T09:35:56;-2.30;99.90
48860;DHT22;34679;51.436;-2.518;2022-12-10T09:38:22;-2.20;99.90
48860;DHT22;34679;51.436;-2.518;2022-12-10T09:43:39;-1.90;99.90
48860;DHT22;34679;51.436;-2.518;2022-12-10T09:51:58;-1.40;99.90
48860;DHT22;34679;51.436;-2.518;2022-12-10T09:54:42;-1.20;99.90
48860;DHT22;34679;51.436;-2.518;2022-12-10T09:57:43;-1.20;99.90
48860;DHT22;34679;51.436;-2.518;2022-12-10T10:00:23;-1.00;99.90
48860;DHT22;34679;51.436;-2.518;2022-12-10T10:02:51;-0.90;99.90
48860;DHT22;34679;51.436;-2.518;2022-12-10T10:05:26;-0.70;99.90
48860;DHT22;34679;51.436;-2.518;2022-12-10T10:07:56;-0.60;99.90
48860;DHT22;34679;51.436;-2.518;2022-12-10T10:10:46;-0.40;99.90
48860;DHT22;34679;51.436;-2.518;2022-12-10T10:13:32;-0.30;99.90
48860;DHT22;34679;51.436;-2.518;2022-12-10T10:16:20;-0.20;99.90
48860;DHT22;34679;51.436;-2.518;2022-12-10T10:21:41;0.10;99.90
48860;DHT22;34679;51.436;-2.518;2022-12-10T10:24:13;0.10;99.90
48860;DHT22;34679;51.436;-2.518;2022-12-10T10:26:39;0.30;99.90
48860;DHT22;34679;51.436;-2.518;2022-12-10T10:29:08;0.30;99.90
48860;DHT22;34679;51.436;-2.518;2022-12-10T10:31:38;0.30;99.90
48860;DHT22;34679;51.436;-2.518;2022-12-10T10:34:11;0.40;99.90
48860;DHT22;34679;51.436;-2.518;2022-12-10T10:36:38;0.30;99.90
48860;DHT22;34679;51.436;-2.518;2022-12-10T10:39:31;0.30;99.90
48860;DHT22;34679;51.436;-2.518;2022-12-10T10:42:08;0.30;99.90
48860;DHT22;34679;51.436;-2.518;2022-12-10T10:44:36;0.40;99.90
48860;DHT22;34679;51.436;-2.518;2022-12-10T10:47:02;0.50;99.90
48860;DHT22;34679;51.436;-2.518;2022-12-10T10:49:32;0.70;99.90
48860;DHT22;34679;51.436;-2.518;2022-12-10T10:52:12;0.80;99.90
48860;DHT22;34679;51.436;-2.518;2022-12-10T10:54:39;0.80;99.90
48860;DHT22;34679;51.436;-2.518;2022-12-10T10:57:20;0.90;99.90
48860;DHT22;34679;51.436;-2.518;2022-12-10T10:59:47;1.00;99.90
48860;DHT22;34679;51.436;-2.518;2022-12-10T11:04:48;1.20;99.90
48860;DHT22;34679;51.436;-2.518;2022-12-10T11:09:49;1.40;99.90
48860;DHT22;34679;51.436;-2.518;2022-12-10T11:12:35;1.40;99.90
48860;DHT22;34679;51.436;-2.518;2022-12-10T11:15:02;1.60;99.90
48860;DHT22;34679;51.436;-2.518;2022-12-10T11:17:28;1.60;99.90
48860;DHT22;34679;51.436;-2.518;2022-12-10T11:22:56;1.70;99.90
48860;DHT22;34679;51.436;-2.518;2022-12-10T11:25:48;1.80;99.90
48860;DHT22;34679;51.436;-2.518;2022-12-10T11:28:54;1.90;99.90
48860;DHT22;34679;51.436;-2.518;2022-12-10T11:42:47;2.00;99.90
48860;DHT22;34679;51.436;-2.518;2022-12-10T11:50:24;2.20;99.90
48860;DHT22;34679;51.436;-2.518;2022-12-10T11:55:43;2.40;99.90
48860;DHT22;34679;51.436;-2.518;2022-12-10T12:09:30;2.70;99.90
48860;DHT22;34679;51.436;-2.518;2022-12-10T12:12:24;2.80;99.90
48860;DHT22;34679;51.436;-2.518;2022-12-10T12:14:57;2.80;99.90
48860;DHT22;34679;51.436;-2.518;2022-12-10T12:17:41;2.90;99.90
48860;DHT22;34679;51.436;-2.518;2022-12-10T12:20:17;2.90;99.90
48860;DHT22;34679;51.436;-2.518;2022-12-10T12:22:48;2.90;99.90
48860;DHT22;34679;51.436;-2.518;2022-12-10T12:25:27;3.00;99.90
48860;DHT22;34679;51.436;-2.518;2022-12-10T12:28:20;3.10;99.90
48860;DHT22;34679;51.436;-2.518;2022-12-10T12:30:50;3.20;99.90
48860;DHT22;34679;51.436;-2.518;2022-12-10T12:36:04;3.30;99.90
48860;DHT22;34679;51.436;-2.518;2022-12-10T12:38:40;3.40;99.90
48860;DHT22;34679;51.436;-2.518;2022-12-10T12:41:39;3.50;99.90
48860;DHT22;34679;51.436;-2.518;2022-12-10T12:45:08;3.60;99.90
48860;DHT22;34679;51.436;-2.518;2022-12-10T12:47:29;3.70;99.90
48860;DHT22;34679;51.436;-2.518;2022-12-10T12:49:59;3.60;99.90
48860;DHT22;34679;51.436;-2.518;2022-12-10T12:54:57;3.60;99.90
48860;DHT22;34679;51.436;-2.518;2022-12-10T12:57:36;3.60;99.90
48860;DHT22;34679;51.436;-2.518;2022-12-10T13:00:12;3.50;99.90
48860;DHT22;34679;51.436;-2.518;2022-12-10T13:02:58;3.50;99.90
48860;DHT22;34679;51.436;-2.518;2022-12-10T13:05:38;3.50;99.90
48860;DHT22;34679;51.436;-2.518;2022-12-10T13:10:53;3.50;99.90
48860;DHT22;34679;51.436;-2.518;2022-12-10T13:13:31;3.60;99.90
48860;DHT22;34679;51.436;-2.518;2022-12-10T13:22:10;3.50;99.90
48860;DHT22;34679;51.436;-2.518;2022-12-10T13:24:43;3.50;99.90
48860;DHT22;34679;51.436;-2.518;2022-12-10T13:43:42;3.50;99.90
48860;DHT22;34679;51.436;-2.518;2022-12-10T13:46:52;3.50;99.90
48860;DHT22;34679;51.436;-2.518;2022-12-10T13:49:20;3.50;99.90
48860;DHT22;34679;51.436;-2.518;2022-12-10T14:00:24;3.50;99.90
48860;DHT22;34679;51.436;-2.518;2022-12-10T14:05:54;3.50;99.90
48860;DHT22;34679;51.436;-2.518;2022-12-10T14:08:26;3.60;99.90
48860;DHT22;34679;51.436;-2.518;2022-12-10T14:10:53;3.70;99.90
48860;DHT22;34679;51.436;-2.518;2022-12-10T14:13:21;3.80;99.90
48860;DHT22;34679;51.436;-2.518;2022-12-10T14:15:55;3.90;99.90
48860;DHT22;34679;51.436;-2.518;2022-12-10T14:18:23;3.90;99.90
48860;DHT22;34679;51.436;-2.518;2022-12-10T14:20:52;4.00;99.90
48860;DHT22;34679;51.436;-2.518;2022-12-10T14:26:10;4.20;99.90
48860;DHT22;34679;51.436;-2.518;2022-12-10T14:28:42;4.20;99.90
48860;DHT22;34679;51.436;-2.518;2022-12-10T14:31:21;4.20;99.90
48860;DHT22;34679;51.436;-2.518;2022-12-10T14:33:50;4.30;99.90
48860;DHT22;34679;51.436;-2.518;2022-12-10T14:36:38;4.30;99.90
48860;DHT22;34679;51.436;-2.518;2022-12-10T14:39:16;4.20;99.90
48860;DHT22;34679;51.436;-2.518;2022-12-10T14:41:42;4.10;99.90
48860;DHT22;34679;51.436;-2.518;2022-12-10T14:44:12;4.00;99.90
48860;DHT22;34679;51.436;-2.518;2022-12-10T14:46:39;3.90;99.90
48860;DHT22;34679;51.436;-2.518;2022-12-10T14:49:08;3.70;99.90
48860;DHT22;34679;51.436;-2.518;2022-12-10T14:51:39;3.50;99.90
48860;DHT22;34679;51.436;-2.518;2022-12-10T14:54:35;3.30;99.90
48860;DHT22;34679;51.436;-2.518;2022-12-10T14:57:13;3.10;99.90
48860;DHT22;34679;51.436;-2.518;2022-12-10T15:00:05;3.00;99.90
48860;DHT22;34679;51.436;-2.518;2022-12-10T15:02:37;2.80;99.90
48860;DHT22;34679;51.436;-2.518;2022-12-10T15:05:12;2.70;99.90
48860;DHT22;34679;51.436;-2.518;2022-12-10T15:07:38;2.60;99.90
48860;DHT22;34679;51.436;-2.518;2022-12-10T15:10:08;2.60;99.90
48860;DHT22;34679;51.436;-2.518;2022-12-10T15:12:43;2.50;99.90
48860;DHT22;34679;51.436;-2.518;2022-12-10T15:15:22;2.60;99.90
48860;DHT22;34679;51.436;-2.518;2022-12-10T15:18:00;2.50;99.90
48860;DHT22;34679;51.436;-2.518;2022-12-10T15:20:31;2.50;99.90
48860;DHT22;34679;51.436;-2.518;2022-12-10T15:25:46;2.30;99.90
48860;DHT22;34679;51.436;-2.518;2022-12-10T15:28:33;2.20;99.90
48860;DHT22;34679;51.436;-2.518;2022-12-10T15:33:55;2.20;99.90
48860;DHT22;34679;51.436;-2.518;2022-12-10T15:36:42;2.00;99.90
48860;DHT22;34679;51.436;-2.518;2022-12-10T15:42:05;2.00;99.90
48860;DHT22;34679;51.436;-2.518;2022-12-10T15:47:22;1.90;99.90
48860;DHT22;34679;51.436;-2.518;2022-12-10T15:49:51;1.90;99.90
48860;DHT22;34679;51.436;-2.518;2022-12-10T15:52:23;1.80;99.90
48860;DHT22;34679;51.436;-2.518;2022-12-10T15:54:51;1.70;99.90
48860;DHT22;34679;51.436;-2.518;2022-12-10T15:57:26;1.60;99.90
48860;DHT22;34679;51.436;-2.518;2022-12-10T15:59:57;1.60;99.90
48860;DHT22;34679;51.436;-2.518;2022-12-10T16:02:36;1.60;99.90
48860;DHT22;34679;51.436;-2.518;2022-12-10T16:07:50;1.40;99.90
48860;DHT22;34679;51.436;-2.518;2022-12-10T16:10:18;1.30;99.90
48860;DHT22;34679;51.436;-2.518;2022-12-10T16:12:46;1.20;99.90
48860;DHT22;34679;51.436;-2.518;2022-12-10T16:15:21;1.10;99.90
48860;DHT22;34679;51.436;-2.518;2022-12-10T16:17:50;1.00;99.90
48860;DHT22;34679;51.436;-2.518;2022-12-10T16:20:27;0.90;99.90
48860;DHT22;34679;51.436;-2.518;2022-12-10T16:22:55;0.80;99.90
48860;DHT22;34679;51.436;-2.518;2022-12-10T16:25:22;0.70;99.90
48860;DHT22;34679;51.436;-2.518;2022-12-10T16:27:48;0.80;99.90
48860;DHT22;34679;51.436;-2.518;2022-12-10T16:33:02;0.70;99.90
48860;DHT22;34679;51.436;-2.518;2022-12-10T16:35:28;0.60;99.90
48860;DHT22;34679;51.436;-2.518;2022-12-10T16:37:53;0.60;99.90
48860;DHT22;34679;51.436;-2.518;2022-12-10T16:40:25;0.60;99.90
48860;DHT22;34679;51.436;-2.518;2022-12-10T16:42:51;0.50;99.90
48860;DHT22;34679;51.436;-2.518;2022-12-10T16:45:29;0.50;99.90
48860;DHT22;34679;51.436;-2.518;2022-12-10T16:47:55;0.40;99.90
48860;DHT22;34679;51.436;-2.518;2022-12-10T16:50:21;0.40;99.90
48860;DHT22;34679;51.436;-2.518;2022-12-10T16:52:47;0.30;99.90
48860;DHT22;34679;51.436;-2.518;2022-12-10T16:55:16;0.40;99.90
48860;DHT22;34679;51.436;-2.518;2022-12-10T16:57:42;0.40;99.90
48860;DHT22;34679;51.436;-2.518;2022-12-10T17:00:23;0.40;99.90
48860;DHT22;34679;51.436;-2.518;2022-12-10T17:02:50;0.30;99.90
48860;DHT22;34679;51.436;-2.518;2022-12-10T17:05:31;0.20;99.90
48860;DHT22;34679;51.436;-2.518;2022-12-10T17:07:57;0.10;99.90
48860;DHT22;34679;51.436;-2.518;2022-12-10T17:10:23;1.00;99.90
48860;DHT22;34679;51.436;-2.518;2022-12-10T17:13:24;0.00;99.90
48860;DHT22;34679;51.436;-2.518;2022-12-10T17:15:52;-0.10;99.90
48860;DHT22;34679;51.436;-2.518;2022-12-10T17:18:18;0.00;99.90
48860;DHT22;34679;51.436;-2.518;2022-12-10T17:20:46;0.10;99.90
48860;DHT22;34679;51.436;-2.518;2022-12-10T17:23:12;0.20;99.90
48860;DHT22;34679;51.436;-2.518;2022-12-10T17:25:38;0.10;99.90
48860;DHT22;34679;51.436;-2.518;2022-12-10T17:28:05;0.20;99.90
48860;DHT22;34679;51.436;-2.518;2022-12-10T17:30:31;0.10;99.90
48860;DHT22;34679;51.436;-2.518;2022-12-10T17:32:57;0.10;99.90
48860;DHT22;34679;51.436;-2.518;2022-12-10T17:35:22;0.00;99.90
48860;DHT22;34679;51.436;-2.518;2022-12-10T17:37:48;-0.20;99.90
48860;DHT22;34679;51.436;-2.518;2022-12-10T17:40:20;-0.30;99.90
48860;DHT22;34679;51.436;-2.518;2022-12-10T17:42:46;-0.40;99.90
48860;DHT22;34679;51.436;-2.518;2022-12-10T17:45:14;-0.50;99.90